sensor_id;sensor_type;location;lat;lon;timestamp;temperature;humidity
19261;DHT22;9764;48.114;11.670;2023-05-27T00:00:57;24.60;86.10
19261;DHT22;9764;48.114;11.670;2023-05-27T00:03:27;24.60;86.10
19261;DHT22;9764;48.114;11.670;2023-05-27T00:05:55;24.60;86.10
19261;DHT22;9764;48.114;11.670;2023-05-27T00:08:24;24.60;86.10
19261;DHT22;9764;48.114;11.670;2023-05-27T00:10:52;24.60;86.10
19261;DHT22;9764;48.114;11.670;2023-05-27T00:13:20;24.60;86.20
19261;DHT22;9764;48.114;11.670;2023-05-27T00:15:48;24.60;86.20
19261;DHT22;9764;48.114;11.670;2023-05-27T00:18:17;24.60;86.10
19261;DHT22;9764;48.114;11.670;2023-05-27T00:20:47;24.60;86.20
19261;DHT22;9764;48.114;11.670;2023-05-27T00:23:16;24.50;86.00
19261;DHT22;9764;48.114;11.670;2023-05-27T00:25:44;24.60;86.10
19261;DHT22;9764;48.114;11.670;2023-05-27T00:28:14;24.60;86.20
19261;DHT22;9764;48.114;11.670;2023-05-27T00:30:42;24.60;86.20
19261;DHT22;9764;48.114;11.670;2023-05-27T00:33:11;24.50;86.00
19261;DHT22;9764;48.114;11.670;2023-05-27T00:35:39;24.50;86.10
19261;DHT22;9764;48.114;11.670;2023-05-27T00:38:09;24.50;86.10
19261;DHT22;9764;48.114;11.670;2023-05-27T00:40:39;24.50;86.10
19261;DHT22;9764;48.114;11.670;2023-05-27T00:43:08;24.50;86.10
19261;DHT22;9764;48.114;11.670;2023-05-27T00:45:36;24.50;86.20
19261;DHT22;9764;48.114;11.670;2023-05-27T00:48:05;24.50;86.20
19261;DHT22;9764;48.114;11.670;2023-05-27T00:50:33;24.50;86.10
19261;DHT22;9764;48.114;11.670;2023-05-27T00:53:02;24.50;86.20
19261;DHT22;9764;48.114;11.670;2023-05-27T00:55:32;24.50;86.20
19261;DHT22;9764;48.114;11.670;2023-05-27T00:58:01;24.50;86.20
19261;DHT22;9764;48.114;11.670;2023-05-27T01:00:31;24.50;86.20
19261;DHT22;9764;48.114;11.670;2023-05-27T01:02:59;24.50;86.20
19261;DHT22;9764;48.114;11.670;2023-05-27T01:05:28;24.50;86.20
19261;DHT22;9764;48.114;11.670;2023-05-27T01:08:09;24.50;86.20
19261;DHT22;9764;48.114;11.670;2023-05-27T01:10:45;24.50;86.30
19261;DHT22;9764;48.114;11.670;2023-05-27T01:13:18;24.40;86.10
19261;DHT22;9764;48.114;11.670;2023-05-27T01:15:52;24.50;86.20
19261;DHT22;9764;48.114;11.670;2023-05-27T01:18:22;24.40;86.10
19261;DHT22;9764;48.114;11.670;2023-05-27T01:20:53;24.40;86.20
19261;DHT22;9764;48.114;11.670;2023-05-27T01:23:25;24.40;86.10
19261;DHT22;9764;48.114;11.670;2023-05-27T01:25:53;24.40;86.10
19261;DHT22;9764;48.114;11.670;2023-05-27T01:28:21;24.40;86.10
19261;DHT22;9764;48.114;11.670;2023-05-27T01:30:52;24.40;86.10
19261;DHT22;9764;48.114;11.670;2023-05-27T01:33:25;24.40;86.10
19261;DHT22;9764;48.114;11.670;2023-05-27T01:36:02;24.40;86.20
19261;DHT22;9764;48.114;11.670;2023-05-27T01:38:35;24.40;86.10
19261;DHT22;9764;48.114;11.670;2023-05-27T01:41:05;24.40;86.20
19261;DHT22;9764;48.114;11.670;2023-05-27T01:43:34;24.40;86.10
19261;DHT22;9764;48.114;11.670;2023-05-27T01:46:03;24.40;86.20
19261;DHT22;9764;48.114;11.670;2023-05-27T01:48:31;24.30;86.10
19261;DHT22;9764;48.114;11.670;2023-05-27T01:51:01;24.40;86.20
19261;DHT22;9764;48.114;11.670;2023-05-27T01:53:29;24.30;86.10
19261;DHT22;9764;48.114;11.670;2023-05-27T01:55:59;24.30;86.10
19261;DHT22;9764;48.114;11.670;2023-05-27T01:58:28;24.30;86.10
19261;DHT22;9764;48.114;11.670;2023-05-27T02:00:57;24.30;86.10
19261;DHT22;9764;48.114;11.670;2023-05-27T02:03:25;24.30;86.20
19261;DHT22;9764;48.114;11.670;2023-05-27T02:05:54;24.30;86.20
19261;DHT22;9764;48.114;11.670;2023-05-27T02:08:23;24.30;86.20
19261;DHT22;9764;48.114;11.670;2023-05-27T02:10:52;24.30;86.20
19261;DHT22;9764;48.114;11.670;2023-05-27T02:13:22;24.30;86.10
19261;DHT22;9764;48.114;11.670;2023-05-27T02:15:50;24.30;86.20
19261;DHT22;9764;48.114;11.670;2023-05-27T02:18:20;24.30;86.20
19261;DHT22;9764;48.114;11.670;2023-05-27T02:20:48;24.30;86.20
19261;DHT22;9764;48.114;11.670;2023-05-27T02:23:18;24.30;86.20
19261;DHT22;9764;48.114;11.670;2023-05-27T02:25:47;24.30;86.20
19261;DHT22;9764;48.114;11.670;2023-05-27T02:28:16;24.30;86.20
19261;DHT22;9764;48.114;11.670;2023-05-27T02:30:46;24.30;86.20
19261;DHT22;9764;48.114;11.670;2023-05-27T02:33:14;24.30;86.20
19261;DHT22;9764;48.114;11.670;2023-05-27T02:35:45;24.30;86.20
19261;DHT22;9764;48.114;11.670;2023-05-27T02:38:14;24.20;86.10
19261;DHT22;9764;48.114;11.670;2023-05-27T02:40:42;24.20;86.20
19261;DHT22;9764;48.114;11.670;2023-05-27T02:43:10;24.20;86.20
19261;DHT22;9764;48.114;11.670;2023-05-27T02:45:38;24.20;86.10
19261;DHT22;9764;48.114;11.670;2023-05-27T02:48:08;24.20;86.20
19261;DHT22;9764;48.114;11.670;2023-05-27T02:50:38;24.20;86.10
19261;DHT22;9764;48.114;11.670;2023-05-27T02:53:06;24.20;86.90
19261;DHT22;9764;48.114;11.670;2023-05-27T02:55:35;24.20;86.10
19261;DHT22;9764;48.114;11.670;2023-05-27T02:58:03;24.20;86.20
19261;DHT22;9764;48.114;11.670;2023-05-27T03:00:32;24.20;86.10
19261;DHT22;9764;48.114;11.670;2023-05-27T03:03:01;24.20;86.90
19261;DHT22;9764;48.114;11.670;2023-05-27T03:05:33;24.20;86.20
19261;DHT22;9764;48.114;11.670;2023-05-27T03:08:01;24.20;86.10
19261;DHT22;9764;48.114;11.670;2023-05-27T03:10:33;24.20;86.20
19261;DHT22;9764;48.114;11.670;2023-05-27T03:13:01;24.10;86.10
19261;DHT22;9764;48.114;11.670;2023-05-27T03:15:30;24.10;86.10
19261;DHT22;9764;48.114;11.670;2023-05-27T03:17:59;24.10;86.10
19261;DHT22;9764;48.114;11.670;2023-05-27T03:20:30;24.10;86.10
19261;DHT22;9764;48.114;11.670;2023-05-27T03:23:01;24.10;86.10
19261;DHT22;9764;48.114;11.670;2023-05-27T03:25:29;24.10;86.00
19261;DHT22;9764;48.114;11.670;2023-05-27T03:28:02;24.10;86.10
19261;DHT22;9764;48.114;11.670;2023-05-27T03:30:31;24.10;86.00
19261;DHT22;9764;48.114;11.670;2023-05-27T03:33:01;24.10;86.10
19261;DHT22;9764;48.114;11.670;2023-05-27T03:35:35;24.10;86.10
19261;DHT22;9764;48.114;11.670;2023-05-27T03:38:04;24.10;86.90
19261;DHT22;9764;48.114;11.670;2023-05-27T03:40:33;24.10;86.90
19261;DHT22;9764;48.114;11.670;2023-05-27T03:43:06;24.10;86.10
19261;DHT22;9764;48.114;11.670;2023-05-27T03:45:34;24.10;86.00
19261;DHT22;9764;48.114;11.670;2023-05-27T03:48:03;24.10;86.10
19261;DHT22;9764;48.114;11.670;2023-05-27T03:50:33;24.10;86.00
19261;DHT22;9764;48.114;11.670;2023-05-27T03:53:04;24.10;86.00
19261;DHT22;9764;48.114;11.670;2023-05-27T03:55:32;24.10;86.00
19261;DHT22;9764;48.114;11.670;2023-05-27T03:58:01;24.10;86.00
19261;DHT22;9764;48.114;11.670;2023-05-27T04:00:29;24.10;86.00
19261;DHT22;9764;48.114;11.670;2023-05-27T04:02:57;24.10;86.00
19261;DHT22;9764;48.114;11.670;2023-05-27T04:05:27;24.10;86.00
19261;DHT22;9764;48.114;11.670;2023-05-27T04:07:55;24.10;85.90
19261;DHT22;9764;48.114;11.670;2023-05-27T04:10:25;24.10;85.90
19261;DHT22;9764;48.114;11.670;2023-05-27T04:12:55;24.10;86.00
19261;DHT22;9764;48.114;11.670;2023-05-27T04:15:23;24.10;85.90
19261;DHT22;9764;48.114;11.670;2023-05-27T04:17:53;24.10;85.90
19261;DHT22;9764;48.114;11.670;2023-05-27T04:20:21;24.10;85.90
19261;DHT22;9764;48.114;11.670;2023-05-27T04:22:55;24.10;85.80
19261;DHT22;9764;48.114;11.670;2023-05-27T04:25:25;24.10;85.90
19261;DHT22;9764;48.114;11.670;2023-05-27T04:28:12;24.10;85.80
19261;DHT22;9764;48.114;11.670;2023-05-27T04:30:45;24.10;85.80
19261;DHT22;9764;48.114;11.670;2023-05-27T04:33:30;24.20;85.80
19261;DHT22;9764;48.114;11.670;2023-05-27T04:35:58;24.20;85.70
19261;DHT22;9764;48.114;11.670;2023-05-27T04:38:30;24.20;85.70
19261;DHT22;9764;48.114;11.670;2023-05-27T04:41:04;24.30;85.60
19261;DHT22;9764;48.114;11.670;2023-05-27T04:44:02;24.30;85.50
19261;DHT22;9764;48.114;11.670;2023-05-27T04:46:35;24.30;85.40
19261;DHT22;9764;48.114;11.670;2023-05-27T04:49:06;24.40;85.40
19261;DHT22;9764;48.114;11.670;2023-05-27T04:51:35;24.50;85.40
19261;DHT22;9764;48.114;11.670;2023-05-27T04:54:04;24.50;85.30
19261;DHT22;9764;48.114;11.670;2023-05-27T04:56:36;24.50;85.10
19261;DHT22;9764;48.114;11.670;2023-05-27T04:59:06;24.60;85.00
19261;DHT22;9764;48.114;11.670;2023-05-27T05:01:36;24.60;84.90
19261;DHT22;9764;48.114;11.670;2023-05-27T05:04:33;24.70;84.90
19261;DHT22;9764;48.114;11.670;2023-05-27T05:07:02;24.80;84.80
19261;DHT22;9764;48.114;11.670;2023-05-27T05:09:34;24.80;85.40
19261;DHT22;9764;48.114;11.670;2023-05-27T05:12:11;24.90;84.40
19261;DHT22;9764;48.114;11.670;2023-05-27T05:14:43;25.00;84.30
19261;DHT22;9764;48.114;11.670;2023-05-27T05:17:12;25.00;84.10
19261;DHT22;9764;48.114;11.670;2023-05-27T05:19:41;25.10;83.90
19261;DHT22;9764;48.114;11.670;2023-05-27T05:22:10;25.20;83.70
19261;DHT22;9764;48.114;11.670;2023-05-27T05:24:40;25.30;83.50
19261;DHT22;9764;48.114;11.670;2023-05-27T05:27:08;25.40;83.10
19261;DHT22;9764;48.114;11.670;2023-05-27T05:29:39;25.80;82.40
19261;DHT22;9764;48.114;11.670;2023-05-27T05:32:09;26.30;81.60
19261;DHT22;9764;48.114;11.670;2023-05-27T05:34:39;26.70;80.60
19261;DHT22;9764;48.114;11.670;2023-05-27T05:37:16;27.30;79.70
19261;DHT22;9764;48.114;11.670;2023-05-27T05:39:46;27.70;78.80
19261;DHT22;9764;48.114;11.670;2023-05-27T05:42:14;27.90;78.00
19261;DHT22;9764;48.114;11.670;2023-05-27T05:44:44;27.70;78.40
19261;DHT22;9764;48.114;11.670;2023-05-27T05:47:13;28.00;78.10
19261;DHT22;9764;48.114;11.670;2023-05-27T05:49:44;28.30;77.40
19261;DHT22;9764;48.114;11.670;2023-05-27T05:52:13;28.60;77.00
19261;DHT22;9764;48.114;11.670;2023-05-27T05:54:41;28.70;76.60
19261;DHT22;9764;48.114;11.670;2023-05-27T05:57:10;28.80;76.30
19261;DHT22;9764;48.114;11.670;2023-05-27T05:59:38;28.90;76.50
19261;DHT22;9764;48.114;11.670;2023-05-27T06:02:08;28.90;75.80
19261;DHT22;9764;48.114;11.670;2023-05-27T06:04:37;29.00;75.80
19261;DHT22;9764;48.114;11.670;2023-05-27T06:07:05;28.90;75.60
19261;DHT22;9764;48.114;11.670;2023-05-27T06:09:40;28.90;75.60
19261;DHT22;9764;48.114;11.670;2023-05-27T06:12:16;28.80;75.80
19261;DHT22;9764;48.114;11.670;2023-05-27T06:14:46;28.70;75.70
19261;DHT22;9764;48.114;11.670;2023-05-27T06:17:25;28.60;76.00
19261;DHT22;9764;48.114;11.670;2023-05-27T06:19:54;28.50;76.30
19261;DHT22;9764;48.114;11.670;2023-05-27T06:22:22;28.30;76.60
19261;DHT22;9764;48.114;11.670;2023-05-27T06:25:10;28.10;77.20
19261;DHT22;9764;48.114;11.670;2023-05-27T06:27:53;27.70;78.00
19261;DHT22;9764;48.114;11.670;2023-05-27T06:30:22;27.20;78.90
19261;DHT22;9764;48.114;11.670;2023-05-27T06:32:52;26.90;79.50
19261;DHT22;9764;48.114;11.670;2023-05-27T06:35:22;26.70;80.20
19261;DHT22;9764;48.114;11.670;2023-05-27T06:37:51;26.50;80.50
19261;DHT22;9764;48.114;11.670;2023-05-27T06:40:20;26.40;80.70
19261;DHT22;9764;48.114;11.670;2023-05-27T06:42:48;26.40;81.00
19261;DHT22;9764;48.114;11.670;2023-05-27T06:45:39;26.30;81.10
19261;DHT22;9764;48.114;11.670;2023-05-27T06:48:48;26.30;81.30
19261;DHT22;9764;48.114;11.670;2023-05-27T06:51:17;26.30;81.30
19261;DHT22;9764;48.114;11.670;2023-05-27T06:53:45;26.20;81.50
19261;DHT22;9764;48.114;11.670;2023-05-27T06:56:19;26.20;81.50
19261;DHT22;9764;48.114;11.670;2023-05-27T06:59:14;26.20;81.50
19261;DHT22;9764;48.114;11.670;2023-05-27T07:01:42;26.20;81.50
19261;DHT22;9764;48.114;11.670;2023-05-27T07:04:15;26.20;81.70
19261;DHT22;9764;48.114;11.670;2023-05-27T07:06:50;26.20;81.50
19261;DHT22;9764;48.114;11.670;2023-05-27T07:09:19;26.20;81.70
19261;DHT22;9764;48.114;11.670;2023-05-27T07:11:47;26.20;81.70
19261;DHT22;9764;48.114;11.670;2023-05-27T07:14:44;26.20;81.70
19261;DHT22;9764;48.114;11.670;2023-05-27T07:17:13;26.20;81.70
19261;DHT22;9764;48.114;11.670;2023-05-27T07:19:43;26.20;81.80
19261;DHT22;9764;48.114;11.670;2023-05-27T07:22:16;26.20;81.70
19261;DHT22;9764;48.114;11.670;2023-05-27T07:24:44;26.20;81.80
19261;DHT22;9764;48.114;11.670;2023-05-27T07:27:13;26.20;81.80
19261;DHT22;9764;48.114;11.670;2023-05-27T07:29:50;26.20;81.80
19261;DHT22;9764;48.114;11.670;2023-05-27T07:32:30;26.20;81.90
19261;DHT22;9764;48.114;11.670;2023-05-27T07:35:00;26.20;81.80
19261;DHT22;9764;48.114;11.670;2023-05-27T07:37:28;26.20;81.90
19261;DHT22;9764;48.114;11.670;2023-05-27T07:39:57;26.20;81.90
19261;DHT22;9764;48.114;11.670;2023-05-27T07:42:25;26.20;81.90
19261;DHT22;9764;48.114;11.670;2023-05-27T07:44:54;26.20;81.90
19261;DHT22;9764;48.114;11.670;2023-05-27T07:47:22;26.30;82.20
19261;DHT22;9764;48.114;11.670;2023-05-27T07:49:51;26.30;82.00
19261;DHT22;9764;48.114;11.670;2023-05-27T07:52:43;26.30;82.70
19261;DHT22;9764;48.114;11.670;2023-05-27T07:55:23;26.30;81.80
19261;DHT22;9764;48.114;11.670;2023-05-27T08:00:23;26.40;81.90
19261;DHT22;9764;48.114;11.670;2023-05-27T08:02:52;26.40;81.80
19261;DHT22;9764;48.114;11.670;2023-05-27T08:05:43;26.40;81.80
19261;DHT22;9764;48.114;11.670;2023-05-27T08:08:21;26.40;81.80
19261;DHT22;9764;48.114;11.670;2023-05-27T08:11:08;26.40;81.80
19261;DHT22;9764;48.114;11.670;2023-05-27T08:13:57;26.40;81.70
19261;DHT22;9764;48.114;11.670;2023-05-27T08:16:44;26.40;81.60
19261;DHT22;9764;48.114;11.670;2023-05-27T08:19:21;26.40;82.50
19261;DHT22;9764;48.114;11.670;2023-05-27T08:21:58;26.40;81.60
19261;DHT22;9764;48.114;11.670;2023-05-27T08:24:48;26.40;81.60
19261;DHT22;9764;48.114;11.670;2023-05-27T08:27:43;26.50;81.60
19261;DHT22;9764;48.114;11.670;2023-05-27T08:30:19;26.50;81.70
19261;DHT22;9764;48.114;11.670;2023-05-27T08:32:54;26.50;81.60
19261;DHT22;9764;48.114;11.670;2023-05-27T08:35:22;26.50;81.70
19261;DHT22;9764;48.114;11.670;2023-05-27T08:37:51;26.50;81.70
19261;DHT22;9764;48.114;11.670;2023-05-27T08:40:21;26.50;81.70
19261;DHT22;9764;48.114;11.670;2023-05-27T08:42:53;26.50;81.70
19261;DHT22;9764;48.114;11.670;2023-05-27T08:45:23;26.50;81.80
19261;DHT22;9764;48.114;11.670;2023-05-27T08:47:51;26.50;81.80
19261;DHT22;9764;48.114;11.670;2023-05-27T08:50:28;26.50;81.80
19261;DHT22;9764;48.114;11.670;2023-05-27T08:52:57;26.50;81.80
19261;DHT22;9764;48.114;11.670;2023-05-27T08:55:29;26.50;81.80
19261;DHT22;9764;48.114;11.670;2023-05-27T08:57:58;26.60;82.00
19261;DHT22;9764;48.114;11.670;2023-05-27T09:00:31;26.50;81.80
19261;DHT22;9764;48.114;11.670;2023-05-27T09:03:09;26.50;81.90
19261;DHT22;9764;48.114;11.670;2023-05-27T09:05:37;26.50;81.80
19261;DHT22;9764;48.114;11.670;2023-05-27T09:08:06;26.50;81.90
19261;DHT22;9764;48.114;11.670;2023-05-27T09:10:39;26.60;82.10
19261;DHT22;9764;48.114;11.670;2023-05-27T09:13:09;26.60;82.00
19261;DHT22;9764;48.114;11.670;2023-05-27T09:15:37;26.60;82.10
19261;DHT22;9764;48.114;11.670;2023-05-27T09:18:05;26.60;82.00
19261;DHT22;9764;48.114;11.670;2023-05-27T09:20:34;26.60;82.10
19261;DHT22;9764;48.114;11.670;2023-05-27T09:23:04;26.50;82.10
19261;DHT22;9764;48.114;11.670;2023-05-27T09:25:33;26.50;82.10
19261;DHT22;9764;48.114;11.670;2023-05-27T09:28:04;26.60;82.20
19261;DHT22;9764;48.114;11.670;2023-05-27T09:30:35;26.50;82.10
19261;DHT22;9764;48.114;11.670;2023-05-27T09:33:03;26.60;82.20
19261;DHT22;9764;48.114;11.670;2023-05-27T09:35:37;26.60;83.10
19261;DHT22;9764;48.114;11.670;2023-05-27T09:38:08;26.60;82.20
19261;DHT22;9764;48.114;11.670;2023-05-27T09:40:37;26.50;82.20
19261;DHT22;9764;48.114;11.670;2023-05-27T09:43:07;26.60;82.40
19261;DHT22;9764;48.114;11.670;2023-05-27T09:45:40;26.60;82.40
19261;DHT22;9764;48.114;11.670;2023-05-27T09:48:10;26.60;83.10
19261;DHT22;9764;48.114;11.670;2023-05-27T09:50:40;26.60;82.30
19261;DHT22;9764;48.114;11.670;2023-05-27T09:53:09;26.60;82.50
19261;DHT22;9764;48.114;11.670;2023-05-27T09:55:39;26.60;82.40
19261;DHT22;9764;48.114;11.670;2023-05-27T09:58:11;26.60;82.40
19261;DHT22;9764;48.114;11.670;2023-05-27T10:00:40;26.60;82.40
19261;DHT22;9764;48.114;11.670;2023-05-27T10:03:09;26.60;82.40
19261;DHT22;9764;48.114;11.670;2023-05-27T10:05:38;26.60;82.50
19261;DHT22;9764;48.114;11.670;2023-05-27T10:08:07;26.60;82.50
19261;DHT22;9764;48.114;11.670;2023-05-27T10:10:51;26.60;82.50
19261;DHT22;9764;48.114;11.670;2023-05-27T10:13:28;26.60;82.50
19261;DHT22;9764;48.114;11.670;2023-05-27T10:15:57;26.60;82.50
19261;DHT22;9764;48.114;11.670;2023-05-27T10:18:26;26.60;82.60
19261;DHT22;9764;48.114;11.670;2023-05-27T10:20:57;26.60;82.60
19261;DHT22;9764;48.114;11.670;2023-05-27T10:23:27;26.60;82.50
19261;DHT22;9764;48.114;11.670;2023-05-27T10:26:00;26.60;82.50
19261;DHT22;9764;48.114;11.670;2023-05-27T10:28:31;26.60;82.60
19261;DHT22;9764;48.114;11.670;2023-05-27T10:31:04;26.70;82.60
19261;DHT22;9764;48.114;11.670;2023-05-27T10:33:35;26.70;82.60
19261;DHT22;9764;48.114;11.670;2023-05-27T10:36:08;26.70;82.60
19261;DHT22;9764;48.114;11.670;2023-05-27T10:38:37;26.70;82.60
19261;DHT22;9764;48.114;11.670;2023-05-27T10:41:07;26.60;82.70
19261;DHT22;9764;48.114;11.670;2023-05-27T10:43:36;26.70;82.70
19261;DHT22;9764;48.114;11.670;2023-05-27T10:46:08;26.70;82.70
19261;DHT22;9764;48.114;11.670;2023-05-27T10:48:37;26.70;82.70
19261;DHT22;9764;48.114;11.670;2023-05-27T10:51:07;26.70;82.70
19261;DHT22;9764;48.114;11.670;2023-05-27T10:53:36;26.70;82.80
19261;DHT22;9764;48.114;11.670;2023-05-27T10:56:05;26.70;82.80
19261;DHT22;9764;48.114;11.670;2023-05-27T10:58:38;26.70;82.80
19261;DHT22;9764;48.114;11.670;2023-05-27T11:01:09;26.70;82.90
19261;DHT22;9764;48.114;11.670;2023-05-27T11:03:42;26.60;82.80
19261;DHT22;9764;48.114;11.670;2023-05-27T11:06:12;26.60;82.90
19261;DHT22;9764;48.114;11.670;2023-05-27T11:08:42;26.70;83.00
19261;DHT22;9764;48.114;11.670;2023-05-27T11:11:12;26.70;83.00
19261;DHT22;9764;48.114;11.670;2023-05-27T11:13:42;26.70;83.00
19261;DHT22;9764;48.114;11.670;2023-05-27T11:16:15;26.70;83.00
19261;DHT22;9764;48.114;11.670;2023-05-27T11:18:45;26.60;82.90
19261;DHT22;9764;48.114;11.670;2023-05-27T11:21:15;26.60;83.00
19261;DHT22;9764;48.114;11.670;2023-05-27T11:23:44;26.60;83.00
19261;DHT22;9764;48.114;11.670;2023-05-27T11:26:17;26.70;83.90
19261;DHT22;9764;48.114;11.670;2023-05-27T11:28:48;26.70;83.00
19261;DHT22;9764;48.114;11.670;2023-05-27T11:31:17;26.70;83.00
19261;DHT22;9764;48.114;11.670;2023-05-27T11:33:49;26.70;83.00
19261;DHT22;9764;48.114;11.670;2023-05-27T11:36:18;26.80;83.00
19261;DHT22;9764;48.114;11.670;2023-05-27T11:38:52;26.70;83.00
19261;DHT22;9764;48.114;11.670;2023-05-27T11:41:22;26.70;82.90
19261;DHT22;9764;48.114;11.670;2023-05-27T11:43:55;26.70;82.90
19261;DHT22;9764;48.114;11.670;2023-05-27T11:46:33;26.70;83.00
19261;DHT22;9764;48.114;11.670;2023-05-27T11:49:03;26.70;82.90
19261;DHT22;9764;48.114;11.670;2023-05-27T11:51:33;26.70;83.00
19261;DHT22;9764;48.114;11.670;2023-05-27T11:54:02;26.80;83.00
19261;DHT22;9764;48.114;11.670;2023-05-27T11:56:30;26.80;83.00
19261;DHT22;9764;48.114;11.670;2023-05-27T11:59:00;26.80;83.00
19261;DHT22;9764;48.114;11.670;2023-05-27T12:01:29;26.70;83.00
19261;DHT22;9764;48.114;11.670;2023-05-27T12:03:57;26.70;83.00
19261;DHT22;9764;48.114;11.670;2023-05-27T12:06:26;26.80;83.90
19261;DHT22;9764;48.114;11.670;2023-05-27T12:08:54;26.70;83.00
19261;DHT22;9764;48.114;11.670;2023-05-27T12:11:23;26.70;83.10
19261;DHT22;9764;48.114;11.670;2023-05-27T12:13:53;26.80;83.10
19261;DHT22;9764;48.114;11.670;2023-05-27T12:16:22;26.80;83.00
19261;DHT22;9764;48.114;11.670;2023-05-27T12:18:51;26.80;83.00
19261;DHT22;9764;48.114;11.670;2023-05-27T12:21:19;26.80;83.00
19261;DHT22;9764;48.114;11.670;2023-05-27T12:23:48;26.80;83.00
19261;DHT22;9764;48.114;11.670;2023-05-27T12:26:17;26.80;83.00
19261;DHT22;9764;48.114;11.670;2023-05-27T12:28:46;26.80;83.10
19261;DHT22;9764;48.114;11.670;2023-05-27T12:31:14;26.80;83.10
19261;DHT22;9764;48.114;11.670;2023-05-27T12:33:44;26.80;83.10
19261;DHT22;9764;48.114;11.670;2023-05-27T12:36:12;26.80;83.10
19261;DHT22;9764;48.114;11.670;2023-05-27T12:38:41;26.80;83.10
19261;DHT22;9764;48.114;11.670;2023-05-27T12:41:10;26.80;83.20
19261;DHT22;9764;48.114;11.670;2023-05-27T12:43:39;26.80;83.20
19261;DHT22;9764;48.114;11.670;2023-05-27T12:46:07;26.80;83.20
19261;DHT22;9764;48.114;11.670;2023-05-27T12:48:38;26.80;83.20
19261;DHT22;9764;48.114;11.670;2023-05-27T12:51:08;26.80;83.10
19261;DHT22;9764;48.114;11.670;2023-05-27T12:53:36;26.80;83.20
19261;DHT22;9764;48.114;11.670;2023-05-27T12:56:05;26.80;83.20
19261;DHT22;9764;48.114;11.670;2023-05-27T12:58:33;26.80;83.20
19261;DHT22;9764;48.114;11.670;2023-05-27T13:01:02;26.80;83.20
19261;DHT22;9764;48.114;11.670;2023-05-27T13:03:30;26.80;83.20
19261;DHT22;9764;48.114;11.670;2023-05-27T13:05:59;26.80;83.20
19261;DHT22;9764;48.114;11.670;2023-05-27T13:08:29;26.80;83.20
19261;DHT22;9764;48.114;11.670;2023-05-27T13:10:57;26.80;83.20
19261;DHT22;9764;48.114;11.670;2023-05-27T13:13:26;26.80;83.40
19261;DHT22;9764;48.114;11.670;2023-05-27T13:15:55;26.80;83.20
19261;DHT22;9764;48.114;11.670;2023-05-27T13:18:24;26.80;83.30
19261;DHT22;9764;48.114;11.670;2023-05-27T13:20:53;26.80;83.30
19261;DHT22;9764;48.114;11.670;2023-05-27T13:23:21;26.80;83.30
19261;DHT22;9764;48.114;11.670;2023-05-27T13:25:51;26.80;83.20
19261;DHT22;9764;48.114;11.670;2023-05-27T13:28:20;26.80;83.30
19261;DHT22;9764;48.114;11.670;2023-05-27T13:30:48;26.80;83.40
19261;DHT22;9764;48.114;11.670;2023-05-27T13:33:17;26.80;83.30
19261;DHT22;9764;48.114;11.670;2023-05-27T13:35:46;26.80;83.30
19261;DHT22;9764;48.114;11.670;2023-05-27T13:38:15;26.80;83.40
19261;DHT22;9764;48.114;11.670;2023-05-27T13:40:43;26.80;83.40
19261;DHT22;9764;48.114;11.670;2023-05-27T13:43:13;26.80;83.30
19261;DHT22;9764;48.114;11.670;2023-05-27T13:45:42;26.80;83.30
19261;DHT22;9764;48.114;11.670;2023-05-27T13:48:10;26.80;83.20
19261;DHT22;9764;48.114;11.670;2023-05-27T13:50:38;26.80;83.30
19261;DHT22;9764;48.114;11.670;2023-05-27T13:53:06;26.80;83.30
19261;DHT22;9764;48.114;11.670;2023-05-27T13:55:35;26.80;83.30
19261;DHT22;9764;48.114;11.670;2023-05-27T13:58:03;26.80;83.40
19261;DHT22;9764;48.114;11.670;2023-05-27T14:00:33;26.70;83.30
19261;DHT22;9764;48.114;11.670;2023-05-27T14:03:01;26.70;83.30
19261;DHT22;9764;48.114;11.670;2023-05-27T14:05:29;26.80;83.40
19261;DHT22;9764;48.114;11.670;2023-05-27T14:11:06;26.80;83.50
19261;DHT22;9764;48.114;11.670;2023-05-27T14:13:34;26.70;83.40
19261;DHT22;9764;48.114;11.670;2023-05-27T14:16:04;26.80;83.40
19261;DHT22;9764;48.114;11.670;2023-05-27T14:18:33;26.80;83.50
19261;DHT22;9764;48.114;11.670;2023-05-27T14:21:05;26.80;83.50
19261;DHT22;9764;48.114;11.670;2023-05-27T14:23:33;26.80;83.50
19261;DHT22;9764;48.114;11.670;2023-05-27T14:26:01;26.80;83.50
19261;DHT22;9764;48.114;11.670;2023-05-27T14:28:30;26.80;83.50
19261;DHT22;9764;48.114;11.670;2023-05-27T14:30:59;26.80;83.50
19261;DHT22;9764;48.114;11.670;2023-05-27T14:33:29;26.80;83.50
19261;DHT22;9764;48.114;11.670;2023-05-27T14:35:58;26.80;83.50
19261;DHT22;9764;48.114;11.670;2023-05-27T14:38:26;26.80;83.50
19261;DHT22;9764;48.114;11.670;2023-05-27T14:40:54;26.80;83.60
19261;DHT22;9764;48.114;11.670;2023-05-27T14:43:23;26.80;83.50
19261;DHT22;9764;48.114;11.670;2023-05-27T14:45:51;26.80;83.50
19261;DHT22;9764;48.114;11.670;2023-05-27T14:48:19;26.80;83.50
19261;DHT22;9764;48.114;11.670;2023-05-27T14:50:49;26.80;83.60
19261;DHT22;9764;48.114;11.670;2023-05-27T14:53:20;26.80;83.50
19261;DHT22;9764;48.114;11.670;2023-05-27T14:55:48;26.80;83.50
19261;DHT22;9764;48.114;11.670;2023-05-27T14:58:18;26.80;83.60
19261;DHT22;9764;48.114;11.670;2023-05-27T15:00:47;26.80;83.40
19261;DHT22;9764;48.114;11.670;2023-05-27T15:03:15;26.80;83.50
19261;DHT22;9764;48.114;11.670;2023-05-27T15:05:44;26.80;83.50
19261;DHT22;9764;48.114;11.670;2023-05-27T15:08:13;26.80;83.50
19261;DHT22;9764;48.114;11.670;2023-05-27T15:10:43;26.80;83.50
19261;DHT22;9764;48.114;11.670;2023-05-27T15:13:12;26.70;83.30
19261;DHT22;9764;48.114;11.670;2023-05-27T15:15:41;26.70;83.40
19261;DHT22;9764;48.114;11.670;2023-05-27T15:18:10;26.70;83.30
19261;DHT22;9764;48.114;11.670;2023-05-27T15:20:39;26.80;83.50
19261;DHT22;9764;48.114;11.670;2023-05-27T15:23:08;26.80;83.50
19261;DHT22;9764;48.114;11.670;2023-05-27T15:25:38;26.80;83.50
19261;DHT22;9764;48.114;11.670;2023-05-27T15:28:07;26.80;83.50
19261;DHT22;9764;48.114;11.670;2023-05-27T15:30:38;26.70;83.40
19261;DHT22;9764;48.114;11.670;2023-05-27T15:33:06;26.70;83.40
19261;DHT22;9764;48.114;11.670;2023-05-27T15:35:35;26.70;83.40
19261;DHT22;9764;48.114;11.670;2023-05-27T15:38:03;26.70;83.40
19261;DHT22;9764;48.114;11.670;2023-05-27T15:40:32;26.80;83.50
19261;DHT22;9764;48.114;11.670;2023-05-27T15:43:03;26.70;83.30
19261;DHT22;9764;48.114;11.670;2023-05-27T15:45:32;26.70;83.40
19261;DHT22;9764;48.114;11.670;2023-05-27T15:48:02;26.70;83.40
19261;DHT22;9764;48.114;11.670;2023-05-27T15:50:30;26.70;83.40
19261;DHT22;9764;48.114;11.670;2023-05-27T15:52:59;26.70;83.40
19261;DHT22;9764;48.114;11.670;2023-05-27T15:55:27;26.70;83.30
19261;DHT22;9764;48.114;11.670;2023-05-27T15:57:55;26.70;83.40